createdAt,value
2018-11-10T00:00:37.001Z,95.83
2018-11-10T00:03:06.545Z,95.39
2018-11-10T00:05:36.024Z,95.71
2018-11-10T00:08:05.194Z,95.83
2018-11-10T00:10:34.536Z,96.28
2018-11-10T00:13:03.957Z,96.63
2018-11-10T00:15:32.976Z,96.66
2018-11-10T00:18:02.817Z,96.36
2018-11-10T00:20:32.025Z,96.45
2018-11-10T00:23:02.002Z,96.26
2018-11-10T00:25:31.639Z,96.77
2018-11-10T00:28:00.987Z,97.11
2018-11-10T00:30:30.658Z,96.60
2018-11-10T00:33:03.746Z,96.69
2018-11-10T00:35:33.314Z,96.81
2018-11-10T00:38:02.220Z,96.08
2018-11-10T00:40:30.885Z,96.38
2018-11-10T00:43:00.301Z,96.41
2018-11-10T00:45:29.519Z,96.61
2018-11-10T00:47:58.717Z,96.57
2018-11-10T00:50:29.158Z,96.68
2018-11-10T00:52:58.879Z,96.41
2018-11-10T00:55:28.568Z,96.73
2018-11-10T00:57:57.760Z,96.91
2018-11-10T01:00:27.539Z,97.01
2018-11-10T01:02:57.209Z,97.29
2018-11-10T01:05:27.186Z,97.36
2018-11-10T01:07:56.613Z,97.61
2018-11-10T01:10:25.852Z,97.32
2018-11-10T01:12:55.941Z,97.08
2018-11-10T01:15:24.909Z,97.17
2018-11-10T01:17:54.218Z,97.63
2018-11-10T01:20:23.734Z,97.72
2018-11-10T01:22:52.921Z,98.28
2018-11-10T01:25:22.536Z,98.22
2018-11-10T01:27:55.193Z,98.50
2018-11-10T01:30:26.469Z,98.50
2018-11-10T01:32:55.833Z,98.84
2018-11-10T01:35:25.033Z,98.90
2018-11-10T01:37:54.284Z,98.82
2018-11-10T01:40:23.548Z,98.85
2018-11-10T01:42:52.753Z,98.55
2018-11-10T01:45:22.264Z,98.99
2018-11-10T01:47:51.822Z,99.14
2018-11-10T01:50:20.443Z,99.22
2018-11-10T01:52:49.340Z,98.73
2018-11-10T01:55:19.254Z,98.69
2018-11-10T01:57:48.526Z,98.83
2018-11-10T02:00:19.258Z,98.65
2018-11-10T02:02:49.459Z,99.06
2018-11-10T02:05:18.778Z,98.88
2018-11-10T02:07:48.484Z,99.05
2018-11-10T02:10:18.328Z,98.94
2018-11-10T02:12:48.265Z,98.58
2018-11-10T02:15:18.377Z,98.44
2018-11-10T02:17:47.880Z,98.16
2018-11-10T02:20:17.251Z,97.99
2018-11-10T02:22:46.270Z,97.89
2018-11-10T02:25:16.225Z,97.90
2018-11-10T02:27:45.547Z,97.55
2018-11-10T02:30:15.155Z,97.77
2018-11-10T02:32:44.530Z,97.41
2018-11-10T02:35:13.810Z,97.01
2018-11-10T02:37:42.944Z,97.25
2018-11-10T02:40:19.221Z,96.68
2018-11-10T02:42:51.277Z,96.38
2018-11-10T02:45:33.889Z,96.36
2018-11-10T02:48:11.773Z,96.16
2018-11-10T02:50:46.647Z,96.05
2018-11-10T02:53:19.887Z,95.85
2018-11-10T02:55:54.575Z,95.51
2018-11-10T02:58:24.493Z,95.31
2018-11-10T03:00:53.573Z,95.46
2018-11-10T03:03:23.639Z,95.14
2018-11-10T03:05:52.720Z,95.29
2018-11-10T03:08:21.955Z,95.10
2018-11-10T03:10:51.483Z,94.88
2018-11-10T03:13:26.241Z,94.45
2018-11-10T03:16:04.732Z,95.26
2018-11-10T03:18:41.489Z,94.83
2018-11-10T03:23:59.766Z,94.96
2018-11-10T03:26:32.695Z,94.81
2018-11-10T03:29:06.235Z,95.03
2018-11-10T03:31:40.701Z,94.97
2018-11-10T03:34:16.301Z,94.62
2018-11-10T03:36:51.825Z,94.61
2018-11-10T03:39:24.334Z,94.82
2018-11-10T03:41:59.913Z,94.66
2018-11-10T03:44:40.128Z,94.43
2018-11-10T03:47:14.564Z,94.68
2018-11-10T03:49:46.683Z,94.31
2018-11-10T03:52:22.432Z,94.72
2018-11-10T03:54:59.575Z,94.23
2018-11-10T03:57:37.356Z,93.92
2018-11-10T04:00:14.692Z,94.27
2018-11-10T04:02:49.326Z,94.17
2018-11-10T04:05:22.971Z,93.68
2018-11-10T04:07:58.039Z,93.63
2018-11-10T04:10:37.599Z,93.07
2018-11-10T04:13:11.991Z,93.53
2018-11-10T04:15:48.573Z,93.91
2018-11-10T04:18:23.208Z,93.98
2018-11-10T04:23:39.998Z,93.86
2018-11-10T04:26:13.245Z,94.10
2018-11-10T04:28:52.267Z,94.68
2018-11-10T04:31:28.537Z,95.01
2018-11-10T04:34:06.835Z,94.97
2018-11-10T04:36:39.014Z,94.52
2018-11-10T04:39:13.043Z,94.68
2018-11-10T04:41:53.621Z,95.25
2018-11-10T04:44:29.860Z,95.17
2018-11-10T04:47:11.161Z,94.88
2018-11-10T04:49:48.743Z,94.32
2018-11-10T04:52:25.480Z,94.47
2018-11-10T04:55:04.359Z,94.81
2018-11-10T04:57:40.740Z,95.18
2018-11-10T05:00:17.627Z,94.66
2018-11-10T05:02:52.757Z,95.14
2018-11-10T05:05:28.549Z,94.91
2018-11-10T05:07:57.837Z,95.52
2018-11-10T05:10:27.523Z,95.11
2018-11-10T05:12:57.713Z,95.31
2018-11-10T05:15:27.191Z,95.58
2018-11-10T05:17:57.435Z,95.51
2018-11-10T05:20:26.660Z,94.94
2018-11-10T05:22:55.616Z,94.76
2018-11-10T05:25:24.795Z,94.49
2018-11-10T05:27:53.983Z,94.08
2018-11-10T05:30:29.725Z,93.76
2018-11-10T05:33:13.329Z,94.36
2018-11-10T05:35:49.276Z,93.87
2018-11-10T05:38:20.938Z,94.19
2018-11-10T05:40:56.825Z,94.13
2018-11-10T05:43:29.390Z,93.64
2018-11-10T05:46:05.071Z,94.08
2018-11-10T05:48:38.798Z,94.46
2018-11-10T05:51:07.829Z,94.22
2018-11-10T05:53:37.480Z,94.56
2018-11-10T05:56:07.977Z,94.58
2018-11-10T05:58:37.321Z,94.91
2018-11-10T06:01:06.920Z,94.70
2018-11-10T06:03:36.845Z,95.21
2018-11-10T06:06:06.040Z,95.01
2018-11-10T06:08:35.391Z,95.48
2018-11-10T06:11:04.390Z,95.84
2018-11-10T06:13:34.108Z,95.69
2018-11-10T06:16:03.030Z,95.32
2018-11-10T06:18:32.062Z,95.74
2018-11-10T06:21:02.088Z,96.31
2018-11-10T06:23:31.401Z,96.72
2018-11-10T06:26:00.630Z,96.36
2018-11-10T06:28:29.469Z,96.35
2018-11-10T06:30:59.295Z,96.32
2018-11-10T06:33:28.825Z,96.67
2018-11-10T06:35:58.745Z,96.80
2018-11-10T06:38:27.344Z,97.23
2018-11-10T06:40:56.820Z,97.55
2018-11-10T06:43:26.192Z,97.46
2018-11-10T06:45:55.237Z,97.95
2018-11-10T06:48:24.974Z,97.94
2018-11-10T06:50:54.953Z,98.56
2018-11-10T06:53:24.000Z,98.39
2018-11-10T06:55:53.344Z,98.69
2018-11-10T06:58:24.457Z,99.58
2018-11-10T07:00:53.563Z,99.83
2018-11-10T07:03:22.627Z,99.63
2018-11-10T07:05:51.403Z,99.55
2018-11-10T07:08:20.008Z,99.60
2018-11-10T07:10:49.187Z,99.20
2018-11-10T07:13:19.465Z,99.55
2018-11-10T07:15:48.261Z,99.56
2018-11-10T07:18:26.706Z,99.37
2018-11-10T07:21:09.373Z,99.66
2018-11-10T07:23:44.281Z,99.42
2018-11-10T07:26:17.384Z,99.07
2018-11-10T07:28:53.228Z,99.34
2018-11-10T07:31:30.020Z,98.84
2018-11-10T07:34:07.775Z,98.12
2018-11-10T07:36:40.899Z,98.39
2018-11-10T07:39:15.505Z,97.96
2018-11-10T07:41:57.948Z,97.89
2018-11-10T07:44:31.663Z,98.06
2018-11-10T07:47:06.032Z,97.69
2018-11-10T07:49:40.162Z,98.02
2018-11-10T07:52:14.076Z,97.67
2018-11-10T07:54:53.564Z,97.83
2018-11-10T07:57:34.683Z,97.65
2018-11-10T08:02:58.685Z,97.63
2018-11-10T08:05:32.017Z,98.30
2018-11-10T08:08:04.577Z,98.22
2018-11-10T08:10:40.322Z,98.59
2018-11-10T08:13:12.362Z,98.79
2018-11-10T08:15:48.056Z,98.55
2018-11-10T08:21:01.918Z,97.81
2018-11-10T08:23:45.149Z,97.95
2018-11-10T08:26:31.113Z,98.00
2018-11-10T08:29:10.595Z,98.46
2018-11-10T08:31:40.510Z,98.44
2018-11-10T08:34:11.315Z,98.24
2018-11-10T08:36:45.111Z,98.00
2018-11-10T08:39:15.441Z,98.21
2018-11-10T08:41:50.329Z,98.07
2018-11-10T08:44:24.445Z,98.53
2018-11-10T08:47:04.813Z,98.10
2018-11-10T08:49:38.380Z,97.90
2018-11-10T08:52:14.958Z,97.97
2018-11-10T08:54:52.978Z,97.81
2018-11-10T08:57:22.318Z,97.86
2018-11-10T08:59:52.830Z,98.05
2018-11-10T09:02:24.139Z,98.25
2018-11-10T09:07:43.628Z,97.15
2018-11-10T09:10:16.446Z,96.94
2018-11-10T09:12:57.215Z,96.93
2018-11-10T09:15:38.349Z,96.86
2018-11-10T09:18:29.401Z,97.22
2018-11-10T09:21:09.980Z,96.69
2018-11-10T09:23:52.176Z,96.69
2018-11-10T09:26:24.301Z,96.68
2018-11-10T09:29:04.932Z,96.47
2018-11-10T09:31:46.886Z,96.09
2018-11-10T09:34:30.056Z,95.73
2018-11-10T09:37:16.244Z,95.29
2018-11-10T09:39:47.537Z,94.89
2018-11-10T09:42:19.424Z,94.86
2018-11-10T09:44:53.224Z,95.05
2018-11-10T09:47:21.811Z,94.37
2018-11-10T09:49:59.046Z,93.68
2018-11-10T09:52:42.122Z,93.91
2018-11-10T09:58:04.467Z,93.85
2018-11-10T10:00:39.137Z,93.53
2018-11-10T10:03:22.833Z,93.37
2018-11-10T10:06:00.582Z,92.18
2018-11-10T10:08:38.320Z,92.20
2018-11-10T10:11:12.435Z,91.88
2018-11-10T10:13:42.777Z,92.33
2018-11-10T10:16:23.237Z,91.65
2018-11-10T10:18:57.490Z,91.68
2018-11-10T10:21:31.168Z,91.77
2018-11-10T10:24:10.103Z,91.51
2018-11-10T10:26:54.291Z,91.21
2018-11-10T10:29:27.822Z,90.52
2018-11-10T10:32:04.037Z,90.45
2018-11-10T10:34:37.289Z,90.58
2018-11-10T10:37:09.233Z,90.20
2018-11-10T10:39:43.693Z,89.73
2018-11-10T10:42:23.080Z,89.46
2018-11-10T10:44:57.970Z,89.47
2018-11-10T10:47:40.663Z,88.84
2018-11-10T10:50:22.992Z,89.43
2018-11-10T10:52:55.779Z,89.43
2018-11-10T10:55:33.919Z,88.87
2018-11-10T10:58:06.387Z,88.61
2018-11-10T11:00:43.081Z,88.31
2018-11-10T11:03:19.835Z,88.35
2018-11-10T11:05:59.548Z,88.36
2018-11-10T11:08:33.032Z,88.18
2018-11-10T11:11:08.960Z,88.28
2018-11-10T11:13:41.565Z,87.47
2018-11-10T11:16:14.867Z,87.72
2018-11-10T11:18:47.618Z,87.07
2018-11-10T11:21:23.490Z,87.31
2018-11-10T11:23:55.469Z,87.60
2018-11-10T11:26:29.064Z,87.45
2018-11-10T11:29:05.359Z,86.97
2018-11-10T11:31:42.389Z,87.08
2018-11-10T11:34:18.623Z,86.46
2018-11-10T11:36:54.594Z,87.09
2018-11-10T11:39:39.081Z,86.23
2018-11-10T11:42:10.583Z,86.03
2018-11-10T11:44:44.697Z,86.31
2018-11-10T11:47:24.060Z,86.71
2018-11-10T11:50:00.535Z,86.44
2018-11-10T11:52:35.070Z,85.58
2018-11-10T11:55:07.343Z,85.99
2018-11-10T11:57:43.776Z,85.92
2018-11-10T12:00:28.041Z,86.74
2018-11-10T12:03:00.264Z,85.80
2018-11-10T12:05:32.104Z,84.69
2018-11-10T12:08:08.878Z,84.70
2018-11-10T12:10:51.876Z,84.61
2018-11-10T12:13:28.568Z,85.06
2018-11-10T12:16:05.309Z,85.04
2018-11-10T12:18:41.259Z,84.64
2018-11-10T12:21:10.536Z,84.09
2018-11-10T12:23:47.429Z,84.46
2018-11-10T12:26:21.418Z,84.17
2018-11-10T12:29:07.967Z,84.16
2018-11-10T12:31:41.806Z,83.93
2018-11-10T12:34:13.827Z,84.00
2018-11-10T12:36:53.174Z,83.60
2018-11-10T12:39:27.759Z,83.88
2018-11-10T12:42:13.663Z,84.07
2018-11-10T12:44:49.980Z,84.25
2018-11-10T12:47:25.763Z,83.92
2018-11-10T12:50:06.114Z,83.55
2018-11-10T12:52:48.474Z,84.09
2018-11-10T12:55:17.206Z,84.06
2018-11-10T12:57:47.651Z,83.55
2018-11-10T13:00:18.909Z,84.46
2018-11-10T13:02:54.729Z,84.37
2018-11-10T13:05:24.138Z,84.25
2018-11-10T13:07:54.432Z,84.06
2018-11-10T13:10:26.557Z,83.92
2018-11-10T13:13:05.796Z,84.05
2018-11-10T13:15:42.860Z,83.58
2018-11-10T13:18:15.626Z,83.36
2018-11-10T13:20:49.681Z,83.73
2018-11-10T13:26:13.649Z,83.91
2018-11-10T13:28:53.039Z,83.01
2018-11-10T13:31:28.903Z,82.65
2018-11-10T13:34:07.530Z,81.92
2018-11-10T13:36:39.412Z,81.14
2018-11-10T13:39:15.078Z,80.55
2018-11-10T13:41:46.845Z,80.55
2018-11-10T13:44:23.561Z,80.20
2018-11-10T13:46:57.716Z,80.01
2018-11-10T13:49:29.759Z,80.33
2018-11-10T13:52:03.698Z,79.67
2018-11-10T13:54:42.657Z,79.27
2018-11-10T13:57:19.833Z,79.47
2018-11-10T13:59:53.420Z,79.71
2018-11-10T14:02:29.368Z,78.80
2018-11-10T14:05:02.738Z,79.07
2018-11-10T14:07:47.125Z,79.35
2018-11-10T14:10:26.121Z,78.55
2018-11-10T14:13:05.057Z,78.98
2018-11-10T14:15:39.837Z,78.64
2018-11-10T14:18:12.068Z,78.89
2018-11-10T14:20:50.393Z,78.80
2018-11-10T14:23:27.067Z,78.92
2018-11-10T14:25:59.842Z,78.55
2018-11-10T14:31:14.574Z,78.38
2018-11-10T14:33:46.900Z,78.90
2018-11-10T14:36:21.160Z,78.91
2018-11-10T14:38:53.381Z,78.68
2018-11-10T14:41:25.291Z,79.11
2018-11-10T14:44:01.201Z,78.92
2018-11-10T14:46:36.126Z,78.66
2018-11-10T14:49:11.818Z,79.43
2018-11-10T14:51:49.396Z,79.16
2018-11-10T14:54:25.172Z,79.36
2018-11-10T14:56:56.248Z,78.69
2018-11-10T14:59:25.155Z,79.16
2018-11-10T15:04:33.834Z,79.82
2018-11-10T15:07:17.683Z,79.65
2018-11-10T15:09:51.897Z,80.29
2018-11-10T15:12:24.341Z,80.04
2018-11-10T15:14:55.110Z,80.44
2018-11-10T15:17:24.299Z,81.49
2018-11-10T15:19:54.658Z,81.31
2018-11-10T15:22:25.629Z,81.86
2018-11-10T15:24:54.897Z,82.10
2018-11-10T15:27:25.056Z,82.35
2018-11-10T15:30:02.516Z,83.41
2018-11-10T15:32:33.822Z,84.49
2018-11-10T15:35:04.963Z,84.57
2018-11-10T15:37:42.220Z,84.75
2018-11-10T15:40:13.315Z,85.25
2018-11-10T15:42:42.090Z,85.44
2018-11-10T15:45:12.360Z,84.92
2018-11-10T15:47:41.794Z,85.67
2018-11-10T15:50:12.619Z,85.06
2018-11-10T15:52:44.197Z,85.39
2018-11-10T15:55:17.340Z,85.17
2018-11-10T15:57:56.799Z,85.84
2018-11-10T16:00:30.035Z,85.82
2018-11-10T16:02:59.787Z,86.10
2018-11-10T16:05:28.695Z,86.00
2018-11-10T16:07:58.928Z,86.33
2018-11-10T16:10:28.275Z,86.43
2018-11-10T16:12:57.637Z,86.25
2018-11-10T16:15:27.599Z,86.05
2018-11-10T16:17:56.987Z,86.91
2018-11-10T16:20:26.705Z,86.82
2018-11-10T16:22:55.853Z,87.19
2018-11-10T16:25:25.217Z,87.02
2018-11-10T16:27:54.988Z,86.96
2018-11-10T16:30:24.641Z,87.75
2018-11-10T16:32:53.466Z,87.62
2018-11-10T16:35:22.762Z,87.11
2018-11-10T16:37:51.942Z,87.05
2018-11-10T16:40:21.397Z,87.29
2018-11-10T16:42:51.003Z,87.38
2018-11-10T16:45:21.403Z,87.04
2018-11-10T16:47:50.816Z,86.65
2018-11-10T16:50:20.663Z,86.40
2018-11-10T16:52:50.285Z,86.16
2018-11-10T16:55:19.692Z,86.18
2018-11-10T16:57:48.584Z,86.06
2018-11-10T17:00:25.898Z,86.10
2018-11-10T17:02:58.857Z,85.94
2018-11-10T17:05:29.267Z,86.19
2018-11-10T17:08:00.566Z,85.74
2018-11-10T17:10:33.370Z,85.82
2018-11-10T17:13:03.624Z,85.35
2018-11-10T17:15:39.050Z,85.15
2018-11-10T17:18:15.421Z,85.21
2018-11-10T17:20:44.726Z,85.18
2018-11-10T17:23:23.372Z,85.82
2018-11-10T17:25:55.379Z,85.43
2018-11-10T17:28:28.133Z,85.68
2018-11-10T17:30:58.796Z,85.16
2018-11-10T17:33:32.697Z,85.15
2018-11-10T17:36:11.591Z,85.58
2018-11-10T17:38:43.845Z,84.87
2018-11-10T17:41:15.201Z,84.64
2018-11-10T17:43:44.592Z,84.20
2018-11-10T17:46:13.969Z,84.34
2018-11-10T17:48:43.216Z,83.76
2018-11-10T17:51:19.437Z,83.21
2018-11-10T17:54:01.492Z,82.72
2018-11-10T17:56:42.522Z,82.93
2018-11-10T17:59:27.406Z,83.08
2018-11-10T18:02:12.879Z,82.83
2018-11-10T18:04:41.981Z,83.28
2018-11-10T18:07:18.064Z,82.83
2018-11-10T18:10:05.791Z,82.47
2018-11-10T18:12:37.052Z,82.32
2018-11-10T18:15:08.042Z,82.11
2018-11-10T18:17:48.645Z,82.04
2018-11-10T18:20:22.440Z,82.10
2018-11-10T18:22:56.340Z,82.00
2018-11-10T18:25:26.875Z,81.50
2018-11-10T18:28:03.155Z,81.06
2018-11-10T18:30:39.664Z,80.86
2018-11-10T18:33:09.644Z,80.44
2018-11-10T18:35:40.534Z,80.51
2018-11-10T18:38:15.097Z,80.59
2018-11-10T18:40:49.429Z,80.30
2018-11-10T18:43:25.221Z,80.51
2018-11-10T18:45:54.390Z,80.58
2018-11-10T18:48:24.473Z,80.42
2018-11-10T18:50:53.289Z,80.55
2018-11-10T18:53:21.907Z,79.96
2018-11-10T18:55:54.971Z,79.86
2018-11-10T18:58:24.527Z,79.96
2018-11-10T19:00:57.430Z,80.52
2018-11-10T19:03:31.025Z,80.62
2018-11-10T19:06:09.072Z,80.82
2018-11-10T19:08:38.796Z,81.20
2018-11-10T19:11:12.217Z,80.74
2018-11-10T19:13:42.222Z,80.83
2018-11-10T19:16:12.696Z,80.84
2018-11-10T19:18:46.718Z,81.62
2018-11-10T19:21:21.484Z,81.85
2018-11-10T19:23:54.131Z,81.83
2018-11-10T19:26:35.764Z,81.60
2018-11-10T19:29:09.814Z,81.60
2018-11-10T19:31:48.275Z,81.61
2018-11-10T19:34:18.916Z,80.49
2018-11-10T19:36:47.713Z,80.05
2018-11-10T19:39:17.990Z,79.96
2018-11-10T19:41:46.887Z,79.89
2018-11-10T19:44:16.966Z,80.22
2018-11-10T19:46:46.727Z,80.32
2018-11-10T19:49:15.978Z,81.06
2018-11-10T19:51:45.790Z,81.20
2018-11-10T19:54:16.192Z,81.85
2018-11-10T19:56:46.625Z,82.25
2018-11-10T19:59:16.188Z,82.84
2018-11-10T20:01:46.016Z,83.37
2018-11-10T20:04:15.809Z,83.52
2018-11-10T20:06:45.685Z,83.79
2018-11-10T20:09:15.536Z,83.14
2018-11-10T20:11:45.224Z,84.02
2018-11-10T20:14:15.049Z,83.67
2018-11-10T20:16:45.010Z,83.83
2018-11-10T20:19:15.028Z,84.12
2018-11-10T20:21:44.897Z,84.35
2018-11-10T20:24:14.963Z,84.30
2018-11-10T20:26:45.141Z,84.11
2018-11-10T20:29:14.774Z,84.62
2018-11-10T20:31:43.948Z,85.41
2018-11-10T20:34:13.398Z,85.16
2018-11-10T20:36:42.894Z,85.45
2018-11-10T20:39:12.359Z,85.60
2018-11-10T20:41:42.506Z,85.78
2018-11-10T20:44:11.843Z,85.94
2018-11-10T20:46:41.694Z,86.65
2018-11-10T20:49:10.911Z,87.78
2018-11-10T20:51:40.269Z,88.66
2018-11-10T20:54:09.522Z,89.58
2018-11-10T20:56:38.143Z,90.71
2018-11-10T20:59:07.313Z,91.36
2018-11-10T21:01:36.409Z,92.14
2018-11-10T21:04:09.893Z,92.72
2018-11-10T21:06:39.706Z,93.72
2018-11-10T21:09:10.649Z,94.11
2018-11-10T21:11:39.588Z,94.30
2018-11-10T21:14:09.917Z,93.64
2018-11-10T21:16:39.443Z,94.44
2018-11-10T21:19:08.516Z,94.66
2018-11-10T21:21:39.368Z,95.22
2018-11-10T21:24:08.838Z,95.46
2018-11-10T21:26:38.131Z,95.27
2018-11-10T21:29:07.174Z,95.95
2018-11-10T21:31:36.745Z,96.00
2018-11-10T21:34:05.813Z,96.63
2018-11-10T21:36:36.128Z,96.40
2018-11-10T21:39:07.074Z,96.30
2018-11-10T21:41:37.386Z,96.72
2018-11-10T21:44:07.457Z,97.08
2018-11-10T21:46:37.418Z,97.10
2018-11-10T21:49:06.618Z,97.51
2018-11-10T21:51:35.279Z,97.86
2018-11-10T21:54:05.178Z,98.33
2018-11-10T21:56:34.388Z,98.35
2018-11-10T21:59:04.456Z,98.64
2018-11-10T22:01:33.748Z,98.60
2018-11-10T22:04:04.106Z,98.64
2018-11-10T22:06:33.293Z,98.08
2018-11-10T22:09:02.375Z,98.02
2018-11-10T22:11:33.083Z,97.44
2018-11-10T22:14:03.395Z,97.21
2018-11-10T22:16:32.452Z,96.79
2018-11-10T22:19:02.286Z,96.76
2018-11-10T22:21:31.620Z,96.69
2018-11-10T22:24:11.744Z,96.84
2018-11-10T22:26:42.024Z,97.42
2018-11-10T22:29:29.984Z,97.78
2018-11-10T22:35:10.580Z,99.47
2018-11-10T22:37:39.624Z,100.00
2018-11-10T22:40:17.125Z,100.00
2018-11-10T22:42:51.007Z,100.00
2018-11-10T22:45:22.753Z,100.00
2018-11-10T22:47:57.530Z,100.00
2018-11-10T22:50:28.010Z,100.00
2018-11-10T22:52:57.857Z,100.00
2018-11-10T22:55:28.826Z,100.00
2018-11-10T22:57:58.093Z,100.00
2018-11-10T23:00:35.753Z,100.00
2018-11-10T23:03:22.423Z,100.00
2018-11-10T23:08:32.772Z,100.00
2018-11-10T23:11:02.198Z,100.00
2018-11-10T23:13:41.882Z,100.00
2018-11-10T23:16:10.975Z,100.00
2018-11-10T23:18:40.166Z,100.00
2018-11-10T23:21:09.088Z,100.00
2018-11-10T23:23:39.345Z,100.00
2018-11-10T23:26:08.104Z,100.00
2018-11-10T23:28:38.048Z,100.00
2018-11-10T23:31:07.777Z,100.00
2018-11-10T23:33:37.797Z,100.00
2018-11-10T23:36:07.497Z,100.00
2018-11-10T23:38:38.189Z,99.63
2018-11-10T23:41:07.106Z,99.84
2018-11-10T23:43:37.673Z,100.00
2018-11-10T23:46:08.358Z,100.00
2018-11-10T23:48:43.592Z,100.00
2018-11-10T23:51:14.119Z,99.89
2018-11-10T23:53:43.736Z,100.00
2018-11-10T23:56:13.431Z,100.00
2018-11-10T23:58:42.794Z,100.00
